createdAt,value
2023-04-29T00:03:33.090Z,500.00
2023-04-29T00:04:33.894Z,500.00
2023-04-29T00:05:33.795Z,500.00
2023-04-29T00:06:33.648Z,500.00
2023-04-29T00:07:33.693Z,500.00
2023-04-29T00:08:33.667Z,500.00
2023-04-29T00:09:33.705Z,431.00
2023-04-29T00:10:33.700Z,400.00
2023-04-29T00:11:33.731Z,400.00
2023-04-29T00:12:33.768Z,400.00
2023-04-29T00:13:33.774Z,400.00
2023-04-29T00:14:33.800Z,400.00
2023-04-29T00:15:33.814Z,421.00
2023-04-29T00:16:33.913Z,446.00
2023-04-29T00:17:33.895Z,480.00
2023-04-29T00:18:33.885Z,500.00
2023-04-29T00:19:33.950Z,500.00
2023-04-29T00:20:33.936Z,503.00
2023-04-29T00:21:33.958Z,499.00
2023-04-29T00:22:33.986Z,500.00
2023-04-29T00:23:33.992Z,500.00
2023-04-29T00:24:34.024Z,504.00
2023-04-29T00:25:34.057Z,502.00
2023-04-29T00:26:34.073Z,500.00
2023-04-29T00:27:34.086Z,501.00
2023-04-29T00:28:34.114Z,502.00
2023-04-29T00:29:34.129Z,497.00
2023-04-29T00:30:34.142Z,500.00
2023-04-29T00:31:34.226Z,504.00
2023-04-29T00:32:34.305Z,505.00
2023-04-29T00:33:34.207Z,497.00
2023-04-29T00:34:34.231Z,502.00
2023-04-29T00:35:34.281Z,506.00
2023-04-29T00:36:34.273Z,503.00
2023-04-29T00:37:34.300Z,500.00
2023-04-29T00:38:34.392Z,503.00
2023-04-29T00:39:34.327Z,507.00
2023-04-29T00:40:34.354Z,505.00
2023-04-29T00:41:34.361Z,500.00
2023-04-29T00:42:34.379Z,502.00
2023-04-29T00:43:34.404Z,509.00
2023-04-29T00:44:35.155Z,508.00
2023-04-29T00:45:34.452Z,500.00
2023-04-29T00:46:34.509Z,503.00
2023-04-29T00:47:34.525Z,500.00
2023-04-29T00:48:34.522Z,512.00
2023-04-29T00:49:34.547Z,505.00
2023-04-29T00:50:34.580Z,506.00
2023-04-29T00:51:34.618Z,502.00
2023-04-29T00:52:34.600Z,504.00
2023-04-29T00:53:34.619Z,504.00
2023-04-29T00:54:34.638Z,504.00
2023-04-29T00:55:34.660Z,501.00
2023-04-29T00:56:34.674Z,502.00
2023-04-29T00:57:34.727Z,502.00
2023-04-29T00:58:34.745Z,505.00
2023-04-29T00:59:34.761Z,501.00
2023-04-29T01:00:34.752Z,508.00
2023-04-29T01:01:34.812Z,504.00
2023-04-29T01:02:34.940Z,504.00
2023-04-29T01:03:35.101Z,502.00
2023-04-29T01:04:35.056Z,515.00
2023-04-29T01:05:35.663Z,506.00
2023-04-29T01:06:34.901Z,511.00
2023-04-29T01:07:34.956Z,505.00
2023-04-29T01:08:34.916Z,514.00
2023-04-29T01:09:34.939Z,506.00
2023-04-29T01:10:34.969Z,509.00
2023-04-29T01:11:34.977Z,507.00
2023-04-29T01:12:35.012Z,511.00
2023-04-29T01:13:35.000Z,505.00
2023-04-29T01:14:35.012Z,513.00
2023-04-29T01:15:35.038Z,503.00
2023-04-29T01:16:35.186Z,498.00
2023-04-29T01:17:35.084Z,509.00
2023-04-29T01:18:35.094Z,507.00
2023-04-29T01:19:35.103Z,500.00
2023-04-29T01:20:35.177Z,508.00
2023-04-29T01:21:35.136Z,500.00
2023-04-29T01:22:35.149Z,504.00
2023-04-29T01:23:35.190Z,508.00
2023-04-29T01:24:35.702Z,506.00
2023-04-29T01:25:35.201Z,506.00
2023-04-29T01:26:35.283Z,511.00
2023-04-29T01:27:35.228Z,509.00
2023-04-29T01:28:35.265Z,502.00
2023-04-29T01:29:35.250Z,509.00
2023-04-29T01:30:35.267Z,507.00
2023-04-29T01:31:35.421Z,507.00
2023-04-29T01:32:35.327Z,506.00
2023-04-29T01:33:35.318Z,500.00
2023-04-29T01:34:35.684Z,507.00
2023-04-29T01:35:35.355Z,504.00
2023-04-29T01:36:35.392Z,505.00
2023-04-29T01:37:35.389Z,506.00
2023-04-29T01:38:35.402Z,501.00
2023-04-29T01:39:35.444Z,506.00
2023-04-29T01:40:35.439Z,504.00
2023-04-29T01:41:35.487Z,513.00
2023-04-29T01:42:35.471Z,512.00
2023-04-29T01:43:35.552Z,500.00
2023-04-29T01:44:35.494Z,506.00
2023-04-29T01:45:35.522Z,506.00
2023-04-29T01:46:35.602Z,512.00
2023-04-29T01:47:35.586Z,508.00
2023-04-29T01:48:35.564Z,512.00
2023-04-29T01:49:35.578Z,512.00
2023-04-29T01:50:35.589Z,515.00
2023-04-29T01:51:35.629Z,508.00
2023-04-29T01:52:35.611Z,515.00
2023-04-29T01:53:35.662Z,508.00
2023-04-29T01:54:35.646Z,509.00
2023-04-29T01:55:35.678Z,508.00
2023-04-29T01:56:35.700Z,503.00
2023-04-29T01:57:35.688Z,505.00
2023-04-29T01:58:35.705Z,502.00
2023-04-29T01:59:35.699Z,503.00
2023-04-29T02:00:35.822Z,503.00
2023-04-29T02:01:35.789Z,512.00
2023-04-29T02:02:35.845Z,503.00
2023-04-29T02:03:35.886Z,501.00
2023-04-29T02:04:36.733Z,505.00
2023-04-29T02:05:35.803Z,500.00
2023-04-29T02:06:35.848Z,502.00
2023-04-29T02:07:35.824Z,510.00
2023-04-29T02:08:35.862Z,507.00
2023-04-29T02:09:35.867Z,514.00
2023-04-29T02:10:35.905Z,511.00
2023-04-29T02:11:35.919Z,506.00
2023-04-29T02:12:35.917Z,504.00
2023-04-29T02:13:35.926Z,504.00
2023-04-29T02:14:37.543Z,506.00
2023-04-29T02:15:35.951Z,513.00
2023-04-29T02:16:35.968Z,514.00
2023-04-29T02:17:35.946Z,509.00
2023-04-29T02:18:35.903Z,507.00
2023-04-29T02:19:35.942Z,508.00
2023-04-29T02:20:35.886Z,509.00
2023-04-29T02:21:35.881Z,504.00
2023-04-29T02:22:35.880Z,517.00
2023-04-29T02:23:35.896Z,503.00
2023-04-29T02:24:35.857Z,506.00
2023-04-29T02:25:35.887Z,508.00
2023-04-29T02:26:35.845Z,508.00
2023-04-29T02:27:35.904Z,507.00
2023-04-29T02:28:35.840Z,509.00
2023-04-29T02:29:35.815Z,508.00
2023-04-29T02:30:35.862Z,505.00
2023-04-29T02:31:35.846Z,509.00
2023-04-29T02:32:35.862Z,509.00
2023-04-29T02:33:35.792Z,506.00
2023-04-29T02:34:35.794Z,503.00
2023-04-29T02:35:35.845Z,504.00
2023-04-29T02:36:35.767Z,508.00
2023-04-29T02:37:35.761Z,511.00
2023-04-29T02:38:35.753Z,511.00
2023-04-29T02:39:35.740Z,512.00
2023-04-29T02:40:35.737Z,512.00
2023-04-29T02:41:35.754Z,512.00
2023-04-29T02:42:35.721Z,514.00
2023-04-29T02:43:35.741Z,500.00
2023-04-29T02:44:35.713Z,505.00
2023-04-29T02:45:35.729Z,510.00
2023-04-29T02:46:35.689Z,508.00
2023-04-29T02:47:35.784Z,507.00
2023-04-29T02:48:35.676Z,503.00
2023-04-29T02:49:35.676Z,517.00
2023-04-29T02:50:35.666Z,510.00
2023-04-29T02:51:35.736Z,514.00
2023-04-29T02:52:35.644Z,510.00
2023-04-29T02:53:35.637Z,509.00
2023-04-29T02:54:35.633Z,509.00
2023-04-29T02:55:35.625Z,507.00
2023-04-29T02:56:35.785Z,506.00
2023-04-29T02:57:35.619Z,509.00
2023-04-29T02:58:35.598Z,507.00
2023-04-29T02:59:35.618Z,511.00
2023-04-29T03:00:35.586Z,507.00
2023-04-29T03:01:35.678Z,512.00
2023-04-29T03:02:35.790Z,510.00
2023-04-29T03:03:35.816Z,507.00
2023-04-29T03:04:35.559Z,511.00
2023-04-29T03:05:35.555Z,504.00
2023-04-29T03:06:35.566Z,511.00
2023-04-29T03:07:35.531Z,505.00
2023-04-29T03:08:35.522Z,505.00
2023-04-29T03:09:35.521Z,510.00
2023-04-29T03:10:35.510Z,511.00
2023-04-29T03:11:35.526Z,508.00
2023-04-29T03:12:35.495Z,506.00
2023-04-29T03:13:35.487Z,506.00
2023-04-29T03:14:35.475Z,509.00
2023-04-29T03:15:35.506Z,508.00
2023-04-29T03:16:35.514Z,508.00
2023-04-29T03:17:35.478Z,505.00
2023-04-29T03:18:35.451Z,508.00
2023-04-29T03:19:35.440Z,515.00
2023-04-29T03:20:35.442Z,504.00
2023-04-29T03:21:35.449Z,501.00
2023-04-29T03:22:35.416Z,503.00
2023-04-29T03:23:35.405Z,507.00
2023-04-29T03:24:35.400Z,510.00
2023-04-29T03:25:36.350Z,510.00
2023-04-29T03:26:35.432Z,508.00
2023-04-29T03:27:35.375Z,510.00
2023-04-29T03:28:35.370Z,509.00
2023-04-29T03:29:35.411Z,509.00
2023-04-29T03:30:35.352Z,507.00
2023-04-29T03:31:35.520Z,505.00
2023-04-29T03:32:35.392Z,505.00
2023-04-29T03:33:35.326Z,509.00
2023-04-29T03:34:35.326Z,501.00
2023-04-29T03:35:35.308Z,508.00
2023-04-29T03:36:35.299Z,504.00
2023-04-29T03:37:35.315Z,504.00
2023-04-29T03:38:35.287Z,515.00
2023-04-29T03:39:35.286Z,512.00
2023-04-29T03:40:35.275Z,509.00
2023-04-29T03:41:35.274Z,511.00
2023-04-29T03:42:35.291Z,508.00
2023-04-29T03:43:35.251Z,502.00
2023-04-29T03:44:35.247Z,501.00
2023-04-29T03:45:35.241Z,500.00
2023-04-29T03:46:35.352Z,513.00
2023-04-29T03:47:35.320Z,505.00
2023-04-29T03:48:35.286Z,505.00
2023-04-29T03:49:35.300Z,504.00
2023-04-29T03:50:35.337Z,511.00
2023-04-29T03:51:35.316Z,510.00
2023-04-29T03:52:35.339Z,511.00
2023-04-29T03:53:35.348Z,508.00
2023-04-29T03:54:35.375Z,512.00
2023-04-29T03:55:35.416Z,513.00
2023-04-29T03:56:35.430Z,509.00
2023-04-29T03:57:35.417Z,506.00
2023-04-29T03:58:35.445Z,509.00
2023-04-29T03:59:35.451Z,512.00
2023-04-29T04:00:35.548Z,506.00
2023-04-29T04:01:35.541Z,507.00
2023-04-29T04:02:35.675Z,514.00
2023-04-29T04:03:35.629Z,509.00
2023-04-29T04:04:35.733Z,513.00
2023-04-29T04:05:35.515Z,518.00
2023-04-29T04:06:35.523Z,510.00
2023-04-29T04:07:35.566Z,516.00
2023-04-29T04:08:35.558Z,517.00
2023-04-29T04:09:35.579Z,520.00
2023-04-29T04:10:35.570Z,511.00
2023-04-29T04:11:35.562Z,515.00
2023-04-29T04:12:35.576Z,517.00
2023-04-29T04:13:35.577Z,515.00
2023-04-29T04:14:35.591Z,512.00
2023-04-29T04:15:35.609Z,517.00
2023-04-29T04:16:35.676Z,517.00
2023-04-29T04:17:35.693Z,510.00
2023-04-29T04:18:35.627Z,515.00
2023-04-29T04:19:35.699Z,513.00
2023-04-29T04:20:38.247Z,515.00
2023-04-29T04:21:35.628Z,521.00
2023-04-29T04:22:35.641Z,521.00
2023-04-29T04:23:35.642Z,514.00
2023-04-29T04:24:35.609Z,513.00
2023-04-29T04:25:35.611Z,518.00
2023-04-29T04:26:35.620Z,513.00
2023-04-29T04:27:35.615Z,522.00
2023-04-29T04:28:35.582Z,512.00
2023-04-29T04:29:35.580Z,517.00
2023-04-29T04:30:35.599Z,525.00
2023-04-29T04:31:35.593Z,520.00
2023-04-29T04:32:35.650Z,517.00
2023-04-29T04:33:35.566Z,516.00
2023-04-29T04:34:35.546Z,515.00
2023-04-29T04:35:35.572Z,509.00
2023-04-29T04:36:35.544Z,513.00
2023-04-29T04:37:35.565Z,509.00
2023-04-29T04:38:35.537Z,510.00
2023-04-29T04:39:35.514Z,508.00
2023-04-29T04:40:35.548Z,515.00
2023-04-29T04:41:35.495Z,514.00
2023-04-29T04:42:35.480Z,514.00
2023-04-29T04:43:35.479Z,506.00
2023-04-29T04:44:35.474Z,512.00
2023-04-29T04:45:35.511Z,507.00
2023-04-29T04:46:35.468Z,508.00
2023-04-29T04:47:35.514Z,505.00
2023-04-29T04:48:35.446Z,506.00
2023-04-29T04:49:35.431Z,509.00
2023-04-29T04:50:35.448Z,507.00
2023-04-29T04:51:35.440Z,506.00
2023-04-29T04:52:35.416Z,508.00
2023-04-29T04:53:35.404Z,513.00
2023-04-29T04:54:35.472Z,513.00
2023-04-29T04:55:35.399Z,515.00
2023-04-29T04:56:35.400Z,511.00
2023-04-29T04:57:35.409Z,523.00
2023-04-29T04:58:35.366Z,508.00
2023-04-29T04:59:35.367Z,516.00
2023-04-29T05:00:35.354Z,520.00
2023-04-29T05:01:35.480Z,522.00
2023-04-29T05:02:35.509Z,519.00
2023-04-29T05:03:35.592Z,512.00
2023-04-29T05:04:35.332Z,511.00
2023-04-29T05:05:35.319Z,509.00
2023-04-29T05:06:36.269Z,507.00
2023-04-29T05:07:35.352Z,510.00
2023-04-29T05:08:35.404Z,513.00
2023-04-29T05:09:35.339Z,507.00
2023-04-29T05:10:35.298Z,517.00
2023-04-29T05:11:35.281Z,522.00
2023-04-29T05:12:35.396Z,517.00
2023-04-29T05:13:35.271Z,518.00
2023-04-29T05:14:35.258Z,520.00
2023-04-29T05:15:35.294Z,522.00
2023-04-29T05:16:35.311Z,514.00
2023-04-29T05:17:35.294Z,523.00
2023-04-29T05:18:35.228Z,519.00
2023-04-29T05:19:35.228Z,517.00
2023-04-29T05:20:35.235Z,519.00
2023-04-29T05:21:35.260Z,513.00
2023-04-29T05:22:35.300Z,515.00
2023-04-29T05:23:35.220Z,513.00
2023-04-29T05:24:35.224Z,515.00
2023-04-29T05:25:35.178Z,516.00
2023-04-29T05:26:35.173Z,508.00
2023-04-29T05:27:35.192Z,507.00
2023-04-29T05:28:35.162Z,512.00
2023-04-29T05:29:35.152Z,518.00
2023-04-29T05:30:35.207Z,516.00
2023-04-29T05:31:35.136Z,519.00
2023-04-29T05:32:35.226Z,518.00
2023-04-29T05:33:35.129Z,515.00
2023-04-29T05:34:35.122Z,517.00
2023-04-29T05:35:35.150Z,518.00
2023-04-29T05:36:35.138Z,513.00
2023-04-29T05:37:35.098Z,516.00
2023-04-29T05:38:35.082Z,513.00
2023-04-29T05:39:35.101Z,512.00
2023-04-29T05:40:35.101Z,518.00
2023-04-29T05:41:35.084Z,521.00
2023-04-29T05:42:35.141Z,517.00
2023-04-29T05:43:36.892Z,518.00
2023-04-29T05:44:35.094Z,527.00
2023-04-29T05:45:35.092Z,521.00
2023-04-29T05:46:35.974Z,524.00
2023-04-29T05:47:35.146Z,533.00
2023-04-29T05:48:35.060Z,525.00
2023-04-29T05:49:35.052Z,523.00
2023-04-29T05:50:35.064Z,504.00
2023-04-29T05:51:35.052Z,509.00
2023-04-29T05:52:35.065Z,533.00
2023-04-29T05:53:35.033Z,569.00
2023-04-29T05:54:35.026Z,594.00
2023-04-29T05:55:35.052Z,620.00
2023-04-29T05:56:34.999Z,635.00
2023-04-29T05:57:35.016Z,657.00
2023-04-29T05:58:34.989Z,706.00
2023-04-29T05:59:34.971Z,777.00
2023-04-29T06:00:34.967Z,858.00
2023-04-29T06:01:34.981Z,885.00
2023-04-29T06:02:39.322Z,881.00
2023-04-29T06:03:35.267Z,883.00
2023-04-29T06:04:35.646Z,887.00
2023-04-29T06:05:35.456Z,896.00
2023-04-29T06:06:35.041Z,918.00
2023-04-29T06:07:35.007Z,949.00
2023-04-29T06:08:34.970Z,951.00
2023-04-29T06:09:34.976Z,938.00
2023-04-29T06:10:34.995Z,935.00
2023-04-29T06:11:34.989Z,932.00
2023-04-29T06:12:34.961Z,919.00
2023-04-29T06:13:34.946Z,899.00
2023-04-29T06:14:34.959Z,880.00
2023-04-29T06:15:34.943Z,876.00
2023-04-29T06:16:34.987Z,855.00
2023-04-29T06:17:34.965Z,831.00
2023-04-29T06:18:34.913Z,812.00
2023-04-29T06:19:34.940Z,796.00
2023-04-29T06:20:37.344Z,798.00
2023-04-29T06:21:34.974Z,781.00
2023-04-29T06:22:34.892Z,750.00
2023-04-29T06:23:34.945Z,737.00
2023-04-29T06:24:34.871Z,713.00
2023-04-29T06:25:34.889Z,698.00
2023-04-29T06:26:34.862Z,724.00
2023-04-29T06:27:34.883Z,725.00
2023-04-29T06:28:34.854Z,697.00
2023-04-29T06:29:34.841Z,712.00
2023-04-29T06:30:34.863Z,704.00
2023-04-29T06:31:34.904Z,719.00
2023-04-29T06:32:34.842Z,724.00
2023-04-29T06:33:34.821Z,720.00
2023-04-29T06:34:34.808Z,740.00
2023-04-29T06:35:34.847Z,749.00
2023-04-29T06:36:34.795Z,762.00
2023-04-29T06:37:36.439Z,767.00
2023-04-29T06:38:34.766Z,769.00
2023-04-29T06:39:34.773Z,771.00
2023-04-29T06:40:34.820Z,773.00
2023-04-29T06:41:34.771Z,783.00
2023-04-29T06:42:34.760Z,794.00
2023-04-29T06:43:34.771Z,806.00
2023-04-29T06:44:34.737Z,791.00
2023-04-29T06:45:34.731Z,798.00
2023-04-29T06:46:34.781Z,821.00
2023-04-29T06:47:34.765Z,834.00
2023-04-29T06:48:34.706Z,833.00
2023-04-29T06:49:34.707Z,828.00
2023-04-29T06:50:34.756Z,821.00
2023-04-29T06:51:34.688Z,834.00
2023-04-29T06:52:34.686Z,850.00
2023-04-29T06:53:34.676Z,848.00
2023-04-29T06:54:34.669Z,843.00
2023-04-29T06:55:34.661Z,861.00
2023-04-29T06:56:34.682Z,855.00
2023-04-29T06:57:34.655Z,869.00
2023-04-29T06:58:34.668Z,866.00
2023-04-29T06:59:34.660Z,867.00
2023-04-29T07:00:34.656Z,873.00
2023-04-29T07:01:34.700Z,898.00
2023-04-29T07:02:34.667Z,899.00
2023-04-29T07:03:34.640Z,874.00
2023-04-29T07:04:34.702Z,888.00
2023-04-29T07:05:34.619Z,882.00
2023-04-29T07:06:34.604Z,868.00
2023-04-29T07:07:34.572Z,862.00
2023-04-29T07:08:34.569Z,851.00
2023-04-29T07:09:34.567Z,813.00
2023-04-29T07:10:34.591Z,814.00
2023-04-29T07:11:34.557Z,771.00
2023-04-29T07:12:34.547Z,800.00
2023-04-29T07:13:34.610Z,782.00
2023-04-29T07:14:34.537Z,766.00
2023-04-29T07:15:34.551Z,786.00
2023-04-29T07:16:34.551Z,763.00
2023-04-29T07:17:34.566Z,806.00
2023-04-29T07:18:34.527Z,814.00
2023-04-29T07:19:34.499Z,795.00
2023-04-29T07:20:34.542Z,778.00
2023-04-29T07:21:34.514Z,745.00
2023-04-29T07:22:34.503Z,736.00
2023-04-29T07:23:34.465Z,732.00
2023-04-29T07:24:34.461Z,727.00
2023-04-29T07:25:34.492Z,727.00
2023-04-29T07:26:34.456Z,722.00
2023-04-29T07:27:34.447Z,687.00
2023-04-29T07:28:34.432Z,751.00
2023-04-29T07:29:34.423Z,741.00
2023-04-29T07:30:34.450Z,708.00
2023-04-29T07:31:37.416Z,697.00
2023-04-29T07:32:34.434Z,699.00
2023-04-29T07:33:34.399Z,698.00
2023-04-29T07:34:34.393Z,671.00
2023-04-29T07:35:34.402Z,686.00
2023-04-29T07:36:34.373Z,663.00
2023-04-29T07:37:34.369Z,657.00
2023-04-29T07:38:34.352Z,670.00
2023-04-29T07:39:34.345Z,668.00
2023-04-29T07:40:34.367Z,650.00
2023-04-29T07:41:34.344Z,651.00
2023-04-29T07:42:34.412Z,623.00
2023-04-29T07:43:34.472Z,628.00
2023-04-29T07:44:34.531Z,645.00
2023-04-29T07:45:34.672Z,659.00
2023-04-29T07:46:34.780Z,654.00
2023-04-29T07:47:34.764Z,652.00
2023-04-29T07:48:34.766Z,625.00
2023-04-29T07:49:34.782Z,609.00
2023-04-29T07:50:34.781Z,613.00
2023-04-29T07:51:34.790Z,604.00
2023-04-29T07:52:34.804Z,606.00
2023-04-29T07:53:34.808Z,598.00
2023-04-29T07:54:34.838Z,598.00
2023-04-29T07:55:34.878Z,580.00
2023-04-29T07:56:34.915Z,565.00
2023-04-29T07:57:34.981Z,575.00
2023-04-29T07:58:34.998Z,589.00
2023-04-29T07:59:35.041Z,603.00
2023-04-29T08:00:35.076Z,616.00
2023-04-29T08:01:35.107Z,617.00
2023-04-29T08:02:35.329Z,628.00
2023-04-29T08:03:35.938Z,631.00
2023-04-29T08:04:35.345Z,643.00
2023-04-29T08:05:35.432Z,645.00
2023-04-29T08:06:35.113Z,633.00
2023-04-29T08:07:35.129Z,634.00
2023-04-29T08:08:35.123Z,634.00
2023-04-29T08:09:35.084Z,633.00
2023-04-29T08:10:35.086Z,630.00
2023-04-29T08:11:35.091Z,629.00
2023-04-29T08:12:35.087Z,628.00
2023-04-29T08:13:35.072Z,626.00
2023-04-29T08:14:35.049Z,625.00
2023-04-29T08:15:35.045Z,624.00
2023-04-29T08:16:35.140Z,626.00
2023-04-29T08:17:35.095Z,638.00
2023-04-29T08:18:35.035Z,631.00
2023-04-29T08:19:35.066Z,628.00
2023-04-29T08:20:35.006Z,628.00
2023-04-29T08:21:34.999Z,612.00
2023-04-29T08:22:35.186Z,597.00
2023-04-29T08:23:34.989Z,598.00
2023-04-29T08:24:34.996Z,593.00
2023-04-29T08:25:34.975Z,595.00
2023-04-29T08:26:34.997Z,593.00
2023-04-29T08:27:35.000Z,594.00
2023-04-29T08:28:35.016Z,592.00
2023-04-29T08:29:35.026Z,602.00
2023-04-29T08:30:35.037Z,582.00
2023-04-29T08:31:35.052Z,540.00
2023-04-29T08:32:35.087Z,511.00
2023-04-29T08:33:35.092Z,537.00
2023-04-29T08:34:35.116Z,538.00
2023-04-29T08:35:35.163Z,541.00
2023-04-29T08:36:35.391Z,556.00
2023-04-29T08:37:35.176Z,567.00
2023-04-29T08:38:35.193Z,570.00
2023-04-29T08:39:35.209Z,569.00
2023-04-29T08:40:35.221Z,577.00
2023-04-29T08:41:35.241Z,585.00
2023-04-29T08:42:35.234Z,586.00
2023-04-29T08:43:35.246Z,586.00
2023-04-29T08:44:35.261Z,603.00
2023-04-29T08:45:35.279Z,603.00
2023-04-29T08:46:35.250Z,601.00
2023-04-29T08:47:35.341Z,611.00
2023-04-29T08:48:35.298Z,606.00
2023-04-29T08:49:35.258Z,617.00
2023-04-29T08:50:35.432Z,617.00
2023-04-29T08:51:35.281Z,621.00
2023-04-29T08:52:35.238Z,624.00
2023-04-29T08:53:35.256Z,624.00
2023-04-29T08:54:35.285Z,631.00
2023-04-29T08:55:35.296Z,629.00
2023-04-29T08:56:35.311Z,624.00
2023-04-29T08:57:35.333Z,627.00
2023-04-29T08:58:35.353Z,631.00
2023-04-29T08:59:35.360Z,630.00
2023-04-29T09:00:35.398Z,633.00
2023-04-29T09:01:35.439Z,639.00
2023-04-29T09:02:35.485Z,646.00
2023-04-29T09:03:35.653Z,640.00
2023-04-29T09:04:35.501Z,655.00
2023-04-29T09:05:35.510Z,655.00
2023-04-29T09:06:35.522Z,656.00
2023-04-29T09:07:35.543Z,663.00
2023-04-29T09:08:35.535Z,674.00
2023-04-29T09:09:35.538Z,678.00
2023-04-29T09:10:35.548Z,686.00
2023-04-29T09:11:35.565Z,738.00
2023-04-29T09:12:35.573Z,798.00
2023-04-29T09:13:35.586Z,833.00
2023-04-29T09:14:35.617Z,857.00
2023-04-29T09:15:35.630Z,849.00
2023-04-29T09:16:35.690Z,855.00
2023-04-29T09:17:35.716Z,838.00
2023-04-29T09:18:35.736Z,839.00
2023-04-29T09:19:35.757Z,834.00
2023-04-29T09:20:35.807Z,847.00
2023-04-29T09:21:35.830Z,872.00
2023-04-29T09:22:35.884Z,901.00
2023-04-29T09:23:35.952Z,913.00
2023-04-29T09:24:35.963Z,915.00
2023-04-29T09:25:36.001Z,906.00
2023-04-29T09:26:36.052Z,904.00
2023-04-29T09:27:36.877Z,915.00
2023-04-29T09:28:36.382Z,919.00
2023-04-29T09:29:36.201Z,927.00
2023-04-29T09:30:36.268Z,936.00
2023-04-29T09:31:36.409Z,969.00
2023-04-29T09:32:39.024Z,952.00
2023-04-29T09:33:36.393Z,984.00
2023-04-29T09:34:36.375Z,983.00
2023-04-29T09:35:36.391Z,978.00
2023-04-29T09:36:36.361Z,968.00
2023-04-29T09:37:36.368Z,967.00
2023-04-29T09:38:36.356Z,977.00
2023-04-29T09:39:36.379Z,1002.00
2023-04-29T09:40:46.619Z,1006.00
2023-04-29T09:41:36.335Z,1008.00
2023-04-29T09:42:36.317Z,1011.00
2023-04-29T09:43:36.316Z,1014.00
2023-04-29T09:44:36.319Z,1016.00
2023-04-29T09:45:36.310Z,1002.00
2023-04-29T09:46:36.330Z,1029.00
2023-04-29T09:47:36.327Z,1072.00
2023-04-29T09:48:36.288Z,1073.00
2023-04-29T09:49:36.272Z,1058.00
2023-04-29T09:50:36.266Z,1045.00
2023-04-29T09:51:36.285Z,1036.00
2023-04-29T09:52:36.253Z,1059.00
2023-04-29T09:53:36.242Z,1066.00
2023-04-29T09:54:36.312Z,1072.00
2023-04-29T09:55:36.279Z,1090.00
2023-04-29T09:56:36.229Z,1105.00
2023-04-29T09:57:36.215Z,1119.00
2023-04-29T09:58:36.216Z,1142.00
2023-04-29T09:59:36.302Z,1146.00
2023-04-29T10:00:36.201Z,1135.00
2023-04-29T10:01:36.238Z,1161.00
2023-04-29T10:02:36.289Z,1184.00
2023-04-29T10:03:36.312Z,1184.00
2023-04-29T10:04:37.669Z,1191.00
2023-04-29T10:05:36.157Z,1193.00
2023-04-29T10:06:36.157Z,1196.00
2023-04-29T10:07:36.154Z,1198.00
2023-04-29T10:08:36.254Z,1202.00
2023-04-29T10:09:36.141Z,1204.00
2023-04-29T10:10:36.138Z,1200.00
2023-04-29T10:11:36.150Z,1177.00
2023-04-29T10:12:36.124Z,1205.00
2023-04-29T10:13:36.103Z,1212.00
2023-04-29T10:14:36.109Z,1228.00
2023-04-29T10:15:36.132Z,1222.00
2023-04-29T10:16:36.167Z,1250.00
2023-04-29T10:17:36.079Z,1235.00
2023-04-29T10:18:36.110Z,1241.00
2023-04-29T10:19:36.056Z,1252.00
2023-04-29T10:20:36.062Z,1277.00
2023-04-29T10:21:36.048Z,1295.00
2023-04-29T10:22:36.046Z,1300.00
2023-04-29T10:23:36.040Z,1290.00
2023-04-29T10:24:36.046Z,1274.00
2023-04-29T10:25:36.052Z,1280.00
2023-04-29T10:26:36.104Z,1291.00
2023-04-29T10:27:36.195Z,1303.00
2023-04-29T10:28:36.228Z,1306.00
2023-04-29T10:29:36.295Z,1316.00
2023-04-29T10:30:36.350Z,1307.00
2023-04-29T10:31:36.447Z,1323.00
2023-04-29T10:32:49.895Z,1321.00
2023-04-29T10:33:36.545Z,1323.00
2023-04-29T10:34:36.460Z,1323.00
2023-04-29T10:35:36.467Z,1325.00
2023-04-29T10:36:36.441Z,1319.00
2023-04-29T10:37:36.444Z,1344.00
2023-04-29T10:38:36.460Z,1387.00
2023-04-29T10:39:36.419Z,1414.00
2023-04-29T10:40:36.459Z,1428.00
2023-04-29T10:41:36.410Z,1399.00
2023-04-29T10:42:36.398Z,1421.00
2023-04-29T10:43:36.420Z,1396.00
2023-04-29T10:44:36.383Z,1393.00
2023-04-29T10:45:36.653Z,1411.00
2023-04-29T10:46:36.435Z,1403.00
2023-04-29T10:47:36.397Z,1417.00
2023-04-29T10:48:36.352Z,1411.00
2023-04-29T10:49:36.355Z,1400.00
2023-04-29T10:50:36.408Z,1394.00
2023-04-29T10:51:36.461Z,1408.00
2023-04-29T10:52:36.522Z,1413.00
2023-04-29T10:53:36.575Z,1420.00
2023-04-29T10:54:36.628Z,1422.00
2023-04-29T10:55:36.688Z,1421.00
2023-04-29T10:56:36.757Z,1419.00
2023-04-29T10:57:36.817Z,1427.00
2023-04-29T10:58:36.899Z,1454.00
2023-04-29T10:59:36.954Z,1447.00
2023-04-29T11:00:36.998Z,1448.00
2023-04-29T11:01:37.249Z,1443.00
2023-04-29T11:02:37.207Z,1442.00
2023-04-29T11:03:37.379Z,1450.00
2023-04-29T11:04:37.280Z,1450.00
2023-04-29T11:05:37.329Z,1443.00
2023-04-29T11:06:37.383Z,1442.00
2023-04-29T11:07:37.443Z,1449.00
2023-04-29T11:08:37.500Z,1450.00
2023-04-29T11:09:37.570Z,1460.00
2023-04-29T11:10:37.654Z,1446.00
2023-04-29T11:11:37.684Z,1435.00
2023-04-29T11:12:37.741Z,1447.00
2023-04-29T11:13:37.807Z,1444.00
2023-04-29T11:14:37.991Z,1440.00
2023-04-29T11:15:37.959Z,1432.00
2023-04-29T11:16:38.035Z,1437.00
2023-04-29T11:17:38.395Z,1433.00
2023-04-29T11:18:38.142Z,1434.00
2023-04-29T11:19:38.170Z,1423.00
2023-04-29T11:20:38.272Z,1426.00
2023-04-29T11:21:38.333Z,1405.00
2023-04-29T11:22:38.378Z,1427.00
2023-04-29T11:23:38.410Z,1421.00
2023-04-29T11:24:38.469Z,1429.00
2023-04-29T11:25:39.606Z,1421.00
2023-04-29T11:26:38.604Z,1419.00
2023-04-29T11:27:38.699Z,1408.00
2023-04-29T11:28:38.711Z,1428.00
2023-04-29T11:29:38.772Z,1419.00
2023-04-29T11:30:38.847Z,1427.00
2023-04-29T11:31:39.011Z,1421.00
2023-04-29T11:32:39.034Z,1419.00
2023-04-29T11:33:39.024Z,1411.00
2023-04-29T11:34:39.086Z,1413.00
2023-04-29T11:35:39.148Z,1415.00
2023-04-29T11:36:39.250Z,1420.00
2023-04-29T11:37:39.269Z,1406.00
2023-04-29T11:38:39.327Z,1410.00
2023-04-29T11:39:39.388Z,1410.00
2023-04-29T11:40:39.446Z,1411.00
2023-04-29T11:41:39.511Z,1401.00
2023-04-29T11:42:39.575Z,1406.00
2023-04-29T11:43:39.635Z,1396.00
2023-04-29T11:44:39.698Z,1401.00
2023-04-29T11:45:39.795Z,1404.00
2023-04-29T11:46:39.853Z,1398.00
2023-04-29T11:47:39.940Z,1400.00
2023-04-29T11:48:39.945Z,1393.00
2023-04-29T11:49:40.005Z,1398.00
2023-04-29T11:50:40.070Z,1393.00
2023-04-29T11:51:40.126Z,1387.00
2023-04-29T11:52:40.176Z,1387.00
2023-04-29T11:53:40.237Z,1387.00
2023-04-29T11:54:40.294Z,1388.00
2023-04-29T11:55:40.353Z,1387.00
2023-04-29T11:56:40.420Z,1378.00
2023-04-29T11:57:40.497Z,1377.00
2023-04-29T11:58:40.559Z,1385.00
2023-04-29T11:59:40.629Z,1372.00
2023-04-29T12:00:40.696Z,1369.00
2023-04-29T12:01:40.770Z,1369.00
2023-04-29T12:02:40.997Z,1347.00
2023-04-29T12:03:41.069Z,1355.00
2023-04-29T12:04:41.170Z,1353.00
2023-04-29T12:05:41.297Z,1354.00
2023-04-29T12:06:41.107Z,1336.00
2023-04-29T12:07:41.245Z,1338.00
2023-04-29T12:08:41.195Z,1340.00
2023-04-29T12:09:41.246Z,1344.00
2023-04-29T12:10:41.304Z,1336.00
2023-04-29T12:11:41.374Z,1335.00
2023-04-29T12:12:41.561Z,1335.00
2023-04-29T12:13:41.518Z,1332.00
2023-04-29T12:14:41.637Z,1330.00
2023-04-29T12:15:41.618Z,1330.00
2023-04-29T12:16:41.668Z,1319.00
2023-04-29T12:17:41.750Z,1320.00
2023-04-29T12:18:41.776Z,1322.00
2023-04-29T12:19:41.865Z,1326.00
2023-04-29T12:20:41.901Z,1307.00
2023-04-29T12:21:41.969Z,1315.00
2023-04-29T12:22:42.023Z,1316.00
2023-04-29T12:23:42.085Z,1318.00
2023-04-29T12:24:42.142Z,1311.00
2023-04-29T12:25:42.201Z,1308.00
2023-04-29T12:26:42.262Z,1295.00